createdAt,value
2016-11-03T00:01:12.445Z,931.06
2016-11-03T00:02:25.667Z,931.07
2016-11-03T00:03:39.230Z,931.09
2016-11-03T00:04:52.942Z,931.07
2016-11-03T00:06:06.005Z,931.05
2016-11-03T00:07:19.806Z,931.06
2016-11-03T00:08:33.404Z,931.12
2016-11-03T00:09:47.021Z,931.13
2016-11-03T00:11:00.025Z,931.13
2016-11-03T00:12:13.657Z,931.11
2016-11-03T00:13:26.698Z,931.13
2016-11-03T00:14:39.770Z,931.07
2016-11-03T00:15:52.565Z,931.09
2016-11-03T00:17:06.113Z,931
2016-11-03T00:18:19.780Z,930.99
2016-11-03T00:19:32.994Z,930.94
2016-11-03T00:20:46.667Z,930.87
2016-11-03T00:21:59.801Z,930.81
2016-11-03T00:23:13.597Z,930.78
2016-11-03T00:24:26.632Z,930.77
2016-11-03T00:25:39.636Z,930.71
2016-11-03T00:26:53.200Z,930.72
2016-11-03T00:28:06.851Z,930.71
2016-11-03T00:29:19.877Z,930.67
2016-11-03T00:30:33.518Z,930.65
2016-11-03T00:31:47.019Z,930.6
2016-11-03T00:33:00.595Z,930.62
2016-11-03T00:34:14.149Z,930.63
2016-11-03T00:35:27.738Z,930.56
2016-11-03T00:36:41.252Z,930.54
2016-11-03T00:37:54.237Z,930.53
2016-11-03T00:39:06.790Z,930.49
2016-11-03T00:40:19.812Z,930.52
2016-11-03T00:41:31.812Z,930.53
2016-11-03T00:42:44.863Z,930.56
2016-11-03T00:43:58.455Z,930.57
2016-11-03T00:45:12.853Z,930.62
2016-11-03T00:46:25.850Z,930.63
2016-11-03T00:47:39.466Z,930.68
2016-11-03T00:48:53.127Z,930.66
2016-11-03T00:50:06.186Z,930.65
2016-11-03T00:51:19.090Z,930.65
2016-11-03T00:52:32.728Z,930.59
2016-11-03T00:53:46.594Z,930.6
2016-11-03T00:54:59.710Z,930.63
2016-11-03T00:56:12.451Z,930.71
2016-11-03T00:57:25.513Z,930.74
2016-11-03T00:58:39.045Z,930.77
2016-11-03T00:59:52.082Z,930.81
2016-11-03T01:01:05.631Z,930.85
2016-11-03T01:02:19.010Z,930.8
2016-11-03T01:03:32.549Z,930.77
2016-11-03T01:04:46.592Z,930.76
2016-11-03T01:06:00.155Z,930.77
2016-11-03T01:07:13.744Z,930.76
2016-11-03T01:08:27.360Z,930.82
2016-11-03T01:09:40.958Z,930.82
2016-11-03T01:10:54.619Z,930.81
2016-11-03T01:12:07.707Z,930.82
2016-11-03T01:13:20.852Z,930.79
2016-11-03T01:14:34.463Z,930.78
2016-11-03T01:15:48.082Z,930.82
2016-11-03T01:17:01.803Z,930.77
2016-11-03T01:18:14.347Z,930.79
2016-11-03T01:19:27.475Z,930.79
2016-11-03T01:20:40.509Z,930.82
2016-11-03T01:21:53.599Z,930.84
2016-11-03T01:23:07.474Z,930.78
2016-11-03T01:24:20.005Z,930.81
2016-11-03T01:25:33.093Z,930.79
2016-11-03T01:26:46.641Z,930.82
2016-11-03T01:28:00.178Z,930.86
2016-11-03T01:29:13.727Z,930.91
2016-11-03T01:30:27.374Z,930.83
2016-11-03T01:31:40.450Z,930.92
2016-11-03T01:32:53.962Z,930.89
2016-11-03T01:34:07.042Z,930.88
2016-11-03T01:35:20.252Z,930.77
2016-11-03T01:36:33.343Z,930.78
2016-11-03T01:37:46.499Z,930.77
2016-11-03T01:38:59.646Z,930.77
2016-11-03T01:40:13.504Z,930.72
2016-11-03T01:41:27.045Z,930.74
2016-11-03T01:42:40.647Z,930.73
2016-11-03T01:43:53.750Z,930.75
2016-11-03T01:45:07.331Z,930.75
2016-11-03T01:46:20.904Z,930.75
2016-11-03T01:47:34.491Z,930.81
2016-11-03T01:48:48.107Z,930.83
2016-11-03T01:50:00.641Z,930.8
2016-11-03T01:51:14.192Z,930.79
2016-11-03T01:52:27.219Z,930.8
2016-11-03T01:53:40.265Z,930.74
2016-11-03T01:54:53.887Z,930.75
2016-11-03T01:56:07.459Z,930.73
2016-11-03T01:57:21.040Z,930.74
2016-11-03T01:58:34.473Z,930.72
2016-11-03T01:59:47.263Z,930.71
2016-11-03T02:01:00.524Z,930.7
2016-11-03T02:02:14.040Z,930.73
2016-11-03T02:03:27.609Z,930.71
2016-11-03T02:04:41.291Z,930.72
2016-11-03T02:05:54.850Z,930.7
2016-11-03T02:07:08.432Z,930.71
2016-11-03T02:08:21.717Z,930.71
2016-11-03T02:09:34.785Z,930.68
2016-11-03T02:10:47.556Z,930.67
2016-11-03T02:12:01.135Z,930.69
2016-11-03T02:13:14.213Z,930.67
2016-11-03T02:14:27.809Z,930.64
2016-11-03T02:15:41.328Z,930.65
2016-11-03T02:16:54.951Z,930.6
2016-11-03T02:18:08.557Z,930.63
2016-11-03T02:19:21.652Z,930.59
2016-11-03T02:20:35.316Z,930.58
2016-11-03T02:21:48.895Z,930.61
2016-11-03T02:23:01.885Z,930.57
2016-11-03T02:24:15.413Z,930.58
2016-11-03T02:25:29.064Z,930.59
2016-11-03T02:26:42.322Z,930.62
2016-11-03T02:27:54.893Z,930.57
2016-11-03T02:29:08.477Z,930.6
2016-11-03T02:30:21.548Z,930.6
2016-11-03T02:31:35.161Z,930.58
2016-11-03T02:32:48.801Z,930.59
2016-11-03T02:34:01.341Z,930.56
2016-11-03T02:35:14.959Z,930.58
2016-11-03T02:36:28.528Z,930.56
2016-11-03T02:37:42.306Z,930.56
2016-11-03T02:38:55.987Z,930.55
2016-11-03T02:40:09.617Z,930.52
2016-11-03T02:41:22.731Z,930.5
2016-11-03T02:42:36.405Z,930.46
2016-11-03T02:43:49.953Z,930.53
2016-11-03T02:45:03.538Z,930.57
2016-11-03T02:46:16.576Z,930.54
2016-11-03T02:47:29.622Z,930.46
2016-11-03T02:48:43.507Z,930.45
2016-11-03T02:49:57.086Z,930.51
2016-11-03T02:51:10.097Z,930.47
2016-11-03T02:52:23.119Z,930.47
2016-11-03T02:53:36.658Z,930.53
2016-11-03T02:54:50.237Z,930.52
2016-11-03T02:56:03.859Z,930.46
2016-11-03T02:57:16.897Z,930.62
2016-11-03T02:58:29.434Z,930.61
2016-11-03T02:59:42.314Z,930.58
2016-11-03T03:00:55.950Z,930.64
2016-11-03T03:02:09.467Z,930.65
2016-11-03T03:03:23.084Z,930.6
2016-11-03T03:04:36.188Z,930.61
2016-11-03T03:05:49.212Z,930.55
2016-11-03T03:07:02.182Z,930.59
2016-11-03T03:08:15.762Z,930.53
2016-11-03T03:09:28.842Z,930.54
2016-11-03T03:10:42.401Z,930.58
2016-11-03T03:11:56.012Z,930.56
2016-11-03T03:13:09.548Z,930.57
2016-11-03T03:14:23.133Z,930.53
2016-11-03T03:15:36.722Z,930.58
2016-11-03T03:16:50.287Z,930.57
2016-11-03T03:18:03.884Z,930.49
2016-11-03T03:19:17.506Z,930.48
2016-11-03T03:20:31.144Z,930.54
2016-11-03T03:21:44.771Z,930.45
2016-11-03T03:22:57.291Z,930.46
2016-11-03T03:24:10.842Z,930.41
2016-11-03T03:25:24.191Z,930.39
2016-11-03T03:26:37.393Z,930.47
2016-11-03T03:27:50.983Z,930.46
2016-11-03T03:29:04.527Z,930.41
2016-11-03T03:30:18.113Z,930.46
2016-11-03T03:31:31.741Z,930.38
2016-11-03T03:32:45.419Z,930.36
2016-11-03T03:33:58.970Z,930.31
2016-11-03T03:35:12.016Z,930.33
2016-11-03T03:36:25.083Z,930.2
2016-11-03T03:37:38.126Z,930.24
2016-11-03T03:38:51.744Z,930.18
2016-11-03T03:40:05.354Z,930.17
2016-11-03T03:41:18.877Z,930.14
2016-11-03T03:42:31.907Z,930.15
2016-11-03T03:43:44.964Z,930.11
2016-11-03T03:44:58.610Z,930.14
2016-11-03T03:46:11.709Z,930.11
2016-11-03T03:47:25.262Z,930.2
2016-11-03T03:48:38.319Z,930.16
2016-11-03T03:49:51.938Z,930.14
2016-11-03T03:51:05.597Z,930.12
2016-11-03T03:52:19.283Z,930.12
2016-11-03T03:53:32.818Z,930.12
2016-11-03T03:54:46.427Z,930.11
2016-11-03T03:56:00.092Z,930.13
2016-11-03T03:57:13.777Z,930.17
2016-11-03T03:58:26.810Z,930.17
2016-11-03T03:59:40.376Z,930.18
2016-11-03T04:00:54.034Z,930.14
2016-11-03T04:02:06.520Z,930.17
2016-11-03T04:03:19.571Z,930.16
2016-11-03T04:04:32.046Z,930.11
2016-11-03T04:05:45.423Z,930.12
2016-11-03T04:06:59.019Z,930.14
2016-11-03T04:08:12.365Z,930.12
2016-11-03T04:09:25.443Z,930.08
2016-11-03T04:10:38.982Z,930.05
2016-11-03T04:11:52.810Z,930.04
2016-11-03T04:13:06.464Z,929.96
2016-11-03T04:14:19.825Z,929.99
2016-11-03T04:15:33.150Z,929.99
2016-11-03T04:16:46.708Z,929.98
2016-11-03T04:18:00.254Z,930.04
2016-11-03T04:19:13.533Z,930.08
2016-11-03T04:20:26.624Z,930.12
2016-11-03T04:21:40.191Z,930.08
2016-11-03T04:22:53.210Z,930.14
2016-11-03T04:24:06.834Z,930.11
2016-11-03T04:25:19.376Z,930.1
2016-11-03T04:26:32.465Z,930.11
2016-11-03T04:27:46.058Z,930.14
2016-11-03T04:28:58.585Z,930.1
2016-11-03T04:30:11.586Z,930.13
2016-11-03T04:31:25.103Z,930.12
2016-11-03T04:32:37.624Z,930.15
2016-11-03T04:33:51.230Z,930.18
2016-11-03T04:35:04.825Z,930.26
2016-11-03T04:36:18.380Z,930.27
2016-11-03T04:37:31.921Z,930.24
2016-11-03T04:38:44.971Z,930.27
2016-11-03T04:39:58.464Z,930.24
2016-11-03T04:41:11.545Z,930.23
2016-11-03T04:42:25.153Z,930.19
2016-11-03T04:43:38.789Z,930.21
2016-11-03T04:44:51.929Z,930.23
2016-11-03T04:46:05.452Z,930.23
2016-11-03T04:47:18.999Z,930.24
2016-11-03T04:48:32.587Z,930.28
2016-11-03T04:49:46.134Z,930.26
2016-11-03T04:50:59.490Z,930.25
2016-11-03T04:52:12.456Z,930.2
2016-11-03T04:53:26.050Z,930.25
2016-11-03T04:54:39.711Z,930.26
2016-11-03T04:55:53.284Z,930.28
2016-11-03T04:57:06.897Z,930.28
2016-11-03T04:58:19.971Z,930.27
2016-11-03T04:59:33.583Z,930.27
2016-11-03T05:00:47.196Z,930.24
2016-11-03T05:02:00.813Z,930.24
2016-11-03T05:03:13.792Z,930.21
2016-11-03T05:04:27.384Z,930.18
2016-11-03T05:05:40.984Z,930.18
2016-11-03T05:06:54.067Z,930.2
2016-11-03T05:08:07.731Z,930.17
2016-11-03T05:09:21.322Z,930.25
2016-11-03T05:10:34.953Z,930.23
2016-11-03T05:11:48.611Z,930.26
2016-11-03T05:13:01.681Z,930.26
2016-11-03T05:14:15.451Z,930.26
2016-11-03T05:15:29.074Z,930.27
2016-11-03T05:16:42.665Z,930.28
2016-11-03T05:17:55.663Z,930.28
2016-11-03T05:19:08.729Z,930.26
2016-11-03T05:20:22.356Z,930.3
2016-11-03T05:21:35.974Z,930.25
2016-11-03T05:22:49.667Z,930.26
2016-11-03T05:24:03.256Z,930.28
2016-11-03T05:25:16.863Z,930.3
2016-11-03T05:26:30.460Z,930.26
2016-11-03T05:27:43.286Z,930.25
2016-11-03T05:28:55.829Z,930.35
2016-11-03T05:30:09.421Z,930.34
2016-11-03T05:31:23.023Z,930.42
2016-11-03T05:32:36.058Z,930.41
2016-11-03T05:33:49.776Z,930.41
2016-11-03T05:35:03.152Z,930.41
2016-11-03T05:36:16.750Z,930.37
2016-11-03T05:37:30.328Z,930.42
2016-11-03T05:38:43.957Z,930.42
2016-11-03T05:39:57.639Z,930.43
2016-11-03T05:41:10.916Z,930.47
2016-11-03T05:42:24.563Z,930.48
2016-11-03T05:43:37.582Z,930.47
2016-11-03T05:44:51.178Z,930.44
2016-11-03T05:46:04.722Z,930.45
2016-11-03T05:47:18.360Z,930.45
2016-11-03T05:48:31.963Z,930.43
2016-11-03T05:49:45.504Z,930.49
2016-11-03T05:50:59.132Z,930.45
2016-11-03T05:52:12.749Z,930.46
2016-11-03T05:53:26.287Z,930.48
2016-11-03T05:54:39.919Z,930.49
2016-11-03T05:55:53.051Z,930.52
2016-11-03T05:57:06.646Z,930.56
2016-11-03T05:58:20.188Z,930.56
2016-11-03T05:59:33.776Z,930.54
2016-11-03T06:00:46.832Z,930.54
2016-11-03T06:01:59.869Z,930.53
2016-11-03T06:03:13.664Z,930.56
2016-11-03T06:04:26.684Z,930.58
2016-11-03T06:05:39.758Z,930.62
2016-11-03T06:06:53.313Z,930.63
2016-11-03T06:08:07.012Z,930.59
2016-11-03T06:09:20.640Z,930.62
2016-11-03T06:10:34.213Z,930.66
2016-11-03T06:11:47.773Z,930.7
2016-11-03T06:13:01.374Z,930.71
2016-11-03T06:14:13.917Z,930.66
2016-11-03T06:15:27.005Z,930.64
2016-11-03T06:16:40.657Z,930.67
2016-11-03T06:17:54.009Z,930.68
2016-11-03T06:19:07.601Z,930.68
2016-11-03T06:20:21.279Z,930.75
2016-11-03T06:21:34.907Z,930.77
2016-11-03T06:22:48.500Z,930.78
2016-11-03T06:24:02.126Z,930.74
2016-11-03T06:25:15.545Z,930.74
2016-11-03T06:26:29.110Z,930.79
2016-11-03T06:27:42.433Z,930.78
2016-11-03T06:28:55.437Z,930.8
2016-11-03T06:30:09.166Z,930.77
2016-11-03T06:31:22.958Z,930.85
2016-11-03T06:32:36.235Z,930.87
2016-11-03T06:33:49.936Z,930.88
2016-11-03T06:35:03.532Z,930.88
2016-11-03T06:36:16.771Z,930.9
2016-11-03T06:37:29.879Z,930.93
2016-11-03T06:38:43.633Z,930.9
2016-11-03T06:39:56.695Z,930.9
2016-11-03T06:41:09.744Z,930.91
2016-11-03T06:42:23.374Z,930.92
2016-11-03T06:43:36.940Z,930.88
2016-11-03T06:44:50.484Z,930.92
2016-11-03T06:46:04.023Z,930.92
2016-11-03T06:47:17.067Z,930.95
2016-11-03T06:48:30.133Z,930.99
2016-11-03T06:49:43.704Z,930.97
2016-11-03T06:50:57.353Z,931.04
2016-11-03T06:52:10.970Z,931.04
2016-11-03T06:53:24.591Z,931.09
2016-11-03T06:54:37.662Z,931.11
2016-11-03T06:55:51.266Z,931.13
2016-11-03T06:57:04.346Z,931.14
2016-11-03T06:58:17.356Z,931.18
2016-11-03T06:59:30.996Z,931.15
2016-11-03T07:00:44.571Z,931.19
2016-11-03T07:01:58.115Z,931.22
2016-11-03T07:03:11.143Z,931.27
2016-11-03T07:04:24.759Z,931.27
2016-11-03T07:05:37.795Z,931.28
2016-11-03T07:06:50.903Z,931.31
2016-11-03T07:08:03.963Z,931.36
2016-11-03T07:09:17.572Z,931.3
2016-11-03T07:10:31.160Z,931.32
2016-11-03T07:11:44.817Z,931.37
2016-11-03T07:12:58.431Z,931.34
2016-11-03T07:14:11.991Z,931.34
2016-11-03T07:15:25.619Z,931.41
2016-11-03T07:16:39.185Z,931.37
2016-11-03T07:17:52.968Z,931.41
2016-11-03T07:19:06.069Z,931.41
2016-11-03T07:20:19.443Z,931.4
2016-11-03T07:21:33.004Z,931.46
2016-11-03T07:22:46.298Z,931.5
2016-11-03T07:23:59.888Z,931.54
2016-11-03T07:25:13.610Z,931.52
2016-11-03T07:26:27.270Z,931.5
2016-11-03T07:27:40.353Z,931.52
2016-11-03T07:28:53.896Z,931.55
2016-11-03T07:30:07.474Z,931.59
2016-11-03T07:31:22.429Z,931.59
2016-11-03T07:32:36.029Z,931.56
2016-11-03T07:33:49.349Z,931.56
2016-11-03T07:35:02.444Z,931.58
2016-11-03T07:36:16.070Z,931.58
2016-11-03T07:37:29.694Z,931.59
2016-11-03T07:38:43.285Z,931.61
2016-11-03T07:39:55.826Z,931.65
2016-11-03T07:41:09.429Z,931.68
2016-11-03T07:42:23.143Z,931.66
2016-11-03T07:43:36.153Z,931.66
2016-11-03T07:44:49.862Z,931.67
2016-11-03T07:46:03.465Z,931.66
2016-11-03T07:47:16.224Z,931.66
2016-11-03T07:48:29.315Z,931.68
2016-11-03T07:49:42.956Z,931.69
2016-11-03T07:50:56.045Z,931.71
2016-11-03T07:52:08.576Z,931.75
2016-11-03T07:53:22.119Z,931.76
2016-11-03T07:54:34.852Z,931.8
2016-11-03T07:55:47.998Z,931.85
2016-11-03T07:57:01.367Z,931.86
2016-11-03T07:58:15.018Z,931.9
2016-11-03T07:59:28.358Z,931.87
2016-11-03T08:00:41.940Z,931.92
2016-11-03T08:01:55.543Z,931.94
2016-11-03T08:03:08.578Z,931.97
2016-11-03T08:04:22.121Z,931.96
2016-11-03T08:05:35.202Z,932.03
2016-11-03T08:06:47.182Z,932.08
2016-11-03T08:08:00.207Z,932.09
2016-11-03T08:09:13.845Z,932.19
2016-11-03T08:10:27.412Z,932.16
2016-11-03T08:11:41.049Z,932.17
2016-11-03T08:12:54.583Z,932.15
2016-11-03T08:14:07.080Z,932.14
2016-11-03T08:15:20.713Z,932.14
2016-11-03T08:16:33.842Z,932.13
2016-11-03T08:17:47.482Z,932.12
2016-11-03T08:19:01.141Z,932.15
2016-11-03T08:20:14.170Z,932.15
2016-11-03T08:21:26.763Z,932.14
2016-11-03T08:22:40.371Z,932.15
2016-11-03T08:23:53.919Z,932.24
2016-11-03T08:25:06.999Z,932.23
2016-11-03T08:26:20.074Z,932.26
2016-11-03T08:27:33.647Z,932.24
2016-11-03T08:28:47.199Z,932.29
2016-11-03T08:30:00.236Z,932.31
2016-11-03T08:31:13.874Z,932.37
2016-11-03T08:32:26.914Z,932.41
2016-11-03T08:33:39.993Z,932.44
2016-11-03T08:34:53.615Z,932.49
2016-11-03T08:36:06.703Z,932.48
2016-11-03T08:37:20.289Z,932.5
2016-11-03T08:38:33.966Z,932.49
2016-11-03T08:39:47.529Z,932.52
2016-11-03T08:41:01.123Z,932.58
2016-11-03T08:42:14.779Z,932.58
2016-11-03T08:43:28.436Z,932.64
2016-11-03T08:44:42.029Z,932.71
2016-11-03T08:45:55.678Z,932.7
2016-11-03T08:47:09.230Z,932.74
2016-11-03T08:48:23.064Z,932.72
2016-11-03T08:49:36.655Z,932.73
2016-11-03T08:50:50.276Z,932.72
2016-11-03T08:52:03.788Z,932.77
2016-11-03T08:53:17.397Z,932.72
2016-11-03T08:54:30.971Z,932.73
2016-11-03T08:55:44.576Z,932.73
2016-11-03T08:56:58.220Z,932.71
2016-11-03T08:58:11.206Z,932.72
2016-11-03T08:59:24.788Z,932.72
2016-11-03T09:00:38.357Z,932.7
2016-11-03T09:01:52.026Z,932.73
2016-11-03T09:03:05.548Z,932.79
2016-11-03T09:04:19.111Z,932.81
2016-11-03T09:05:32.756Z,932.85
2016-11-03T09:06:46.779Z,932.82
2016-11-03T09:08:00.111Z,932.81
2016-11-03T09:09:13.705Z,932.83
2016-11-03T09:10:27.294Z,932.87
2016-11-03T09:11:40.868Z,932.84
2016-11-03T09:12:54.406Z,932.85
2016-11-03T09:14:08.053Z,932.87
2016-11-03T09:15:21.707Z,932.91
2016-11-03T09:16:34.723Z,932.94
2016-11-03T09:17:48.307Z,932.95
2016-11-03T09:19:01.924Z,932.96
2016-11-03T09:20:15.642Z,932.98
2016-11-03T09:21:29.280Z,932.96
2016-11-03T09:22:42.833Z,932.95
2016-11-03T09:23:56.423Z,932.97
2016-11-03T09:25:10.037Z,933.01
2016-11-03T09:26:23.612Z,933.01
2016-11-03T09:27:37.117Z,933.04
2016-11-03T09:28:50.654Z,933.07
2016-11-03T09:30:04.203Z,933.08
2016-11-03T09:31:17.755Z,933.12
2016-11-03T09:32:31.411Z,933.12
2016-11-03T09:33:45.005Z,933.14
2016-11-03T09:34:58.054Z,933.12
2016-11-03T09:36:11.339Z,933.14
2016-11-03T09:37:24.882Z,933.19
2016-11-03T09:38:38.481Z,933.19
2016-11-03T09:39:51.885Z,933.22
2016-11-03T09:41:05.441Z,933.22
2016-11-03T09:42:19.042Z,933.23
2016-11-03T09:43:32.640Z,933.24
2016-11-03T09:44:46.197Z,933.27
2016-11-03T09:45:59.760Z,933.24
2016-11-03T09:47:13.344Z,933.27
2016-11-03T09:48:26.985Z,933.25
2016-11-03T09:49:40.616Z,933.27
2016-11-03T09:50:53.673Z,933.28
2016-11-03T09:52:07.363Z,933.27
2016-11-03T09:53:21.020Z,933.25
2016-11-03T09:54:34.631Z,933.24
2016-11-03T09:55:48.232Z,933.27
2016-11-03T09:57:01.782Z,933.26
2016-11-03T09:58:15.680Z,933.3
2016-11-03T09:59:29.228Z,933.29
2016-11-03T10:00:42.866Z,933.31
2016-11-03T10:01:56.429Z,933.32
2016-11-03T10:03:09.999Z,933.34
2016-11-03T10:04:23.609Z,933.35
2016-11-03T10:05:37.220Z,933.36
2016-11-03T10:06:50.905Z,933.36
2016-11-03T10:08:04.479Z,933.35
2016-11-03T10:09:18.115Z,933.35
2016-11-03T10:10:31.689Z,933.36
2016-11-03T10:11:45.042Z,933.36
2016-11-03T10:12:58.141Z,933.38
2016-11-03T10:14:11.304Z,933.38
2016-11-03T10:15:24.884Z,933.41
2016-11-03T10:16:38.550Z,933.47
2016-11-03T10:17:51.622Z,933.49
2016-11-03T10:19:04.939Z,933.47
2016-11-03T10:20:18.461Z,933.49
2016-11-03T10:21:32.208Z,933.47
2016-11-03T10:22:45.808Z,933.5
2016-11-03T10:23:59.397Z,933.55
2016-11-03T10:25:12.989Z,933.54
2016-11-03T10:26:26.553Z,933.54
2016-11-03T10:27:40.230Z,933.58
2016-11-03T10:28:53.591Z,933.6
2016-11-03T10:30:07.390Z,933.61
2016-11-03T10:31:21.025Z,933.57
2016-11-03T10:32:34.610Z,933.59
2016-11-03T10:33:48.152Z,933.57
2016-11-03T10:35:01.472Z,933.58
2016-11-03T10:36:15.077Z,933.64
2016-11-03T10:37:28.402Z,933.66
2016-11-03T10:38:42.030Z,933.7
2016-11-03T10:39:55.708Z,933.73
2016-11-03T10:41:09.299Z,933.73
2016-11-03T10:42:23.077Z,933.72
2016-11-03T10:43:36.703Z,933.72
2016-11-03T10:44:50.243Z,933.71
2016-11-03T10:46:03.893Z,933.76
2016-11-03T10:47:17.522Z,933.78
2016-11-03T10:48:31.184Z,933.82
2016-11-03T10:49:44.862Z,933.87
2016-11-03T10:50:58.449Z,933.91
2016-11-03T10:52:11.976Z,933.97
2016-11-03T10:53:25.536Z,933.98
2016-11-03T10:54:39.172Z,933.97
2016-11-03T10:55:53.003Z,933.97
2016-11-03T10:57:06.569Z,934
2016-11-03T10:58:20.140Z,934.02
2016-11-03T10:59:33.671Z,934.01
2016-11-03T11:00:47.233Z,934.03
2016-11-03T11:02:00.784Z,934.03
2016-11-03T11:03:14.332Z,934.08
2016-11-03T11:04:27.657Z,934.08
2016-11-03T11:05:41.298Z,934.09
2016-11-03T11:06:54.826Z,934.11
2016-11-03T11:08:08.380Z,934.12
2016-11-03T11:09:21.405Z,934.13
2016-11-03T11:10:34.900Z,934.14
2016-11-03T11:11:48.454Z,934.16
2016-11-03T11:13:02.022Z,934.19
2016-11-03T11:14:15.700Z,934.18
2016-11-03T11:15:29.230Z,934.19
2016-11-03T11:16:42.833Z,934.23
2016-11-03T11:17:56.441Z,934.2
2016-11-03T11:19:10.008Z,934.27
2016-11-03T11:20:23.072Z,934.33
2016-11-03T11:21:36.378Z,934.36
2016-11-03T11:22:49.356Z,934.38
2016-11-03T11:24:02.955Z,934.38
2016-11-03T11:25:16.897Z,934.4
2016-11-03T11:26:30.564Z,934.43
2016-11-03T11:27:44.136Z,934.43
2016-11-03T11:28:57.482Z,934.49
2016-11-03T11:30:11.033Z,934.57
2016-11-03T11:31:24.635Z,934.6
2016-11-03T11:32:38.274Z,934.66
2016-11-03T11:33:51.911Z,934.71
2016-11-03T11:35:05.477Z,934.74
2016-11-03T11:36:19.149Z,934.73
2016-11-03T11:37:32.703Z,934.74
2016-11-03T11:38:46.012Z,934.77
2016-11-03T11:39:59.653Z,934.75
2016-11-03T11:41:13.187Z,934.77
2016-11-03T11:42:26.747Z,934.83
2016-11-03T11:43:40.359Z,934.84
2016-11-03T11:44:53.930Z,934.86
2016-11-03T11:46:07.445Z,934.92
2016-11-03T11:47:20.980Z,934.95
2016-11-03T11:48:34.529Z,934.94
2016-11-03T11:49:48.063Z,934.95
2016-11-03T11:51:01.639Z,934.96
2016-11-03T11:52:15.228Z,934.95
2016-11-03T11:53:28.852Z,934.96
2016-11-03T11:54:42.604Z,934.96
2016-11-03T11:55:56.198Z,934.99
2016-11-03T11:57:09.809Z,935.01
2016-11-03T11:58:23.409Z,935.05
2016-11-03T12:01:00.361Z,935.04
2016-11-03T12:02:13.986Z,934.99
2016-11-03T12:03:27.519Z,934.99
2016-11-03T12:04:41.137Z,935.01
2016-11-03T12:05:54.657Z,935.01
2016-11-03T12:07:08.220Z,935.02
2016-11-03T12:09:48.736Z,935.14
2016-11-03T12:11:02.343Z,935.15
2016-11-03T12:12:16.004Z,935.17
2016-11-03T12:13:29.560Z,935.14
2016-11-03T12:14:42.615Z,935.16
2016-11-03T12:15:56.189Z,935.13
2016-11-03T12:17:09.750Z,935.16
2016-11-03T12:18:23.306Z,935.16
2016-11-03T12:19:36.274Z,935.18
2016-11-03T12:20:49.271Z,935.18
2016-11-03T12:22:02.379Z,935.21
2016-11-03T12:23:14.925Z,935.23
2016-11-03T12:24:27.908Z,935.23
2016-11-03T12:25:41.496Z,935.26
2016-11-03T12:26:55.119Z,935.3
2016-11-03T12:28:08.373Z,935.29
2016-11-03T12:29:22.404Z,935.34
2016-11-03T12:30:36.013Z,935.36
2016-11-03T12:31:49.981Z,935.38
2016-11-03T12:33:03.539Z,935.39
2016-11-03T12:34:17.128Z,935.39
2016-11-03T12:35:30.172Z,935.42
2016-11-03T12:36:42.729Z,935.43
2016-11-03T12:37:56.016Z,935.46
2016-11-03T12:39:09.590Z,935.49
2016-11-03T12:40:23.145Z,935.5
2016-11-03T12:41:36.722Z,935.55
2016-11-03T12:42:50.322Z,935.56
2016-11-03T12:44:03.935Z,935.64
2016-11-03T12:45:17.490Z,935.62
2016-11-03T12:46:31.081Z,935.62
2016-11-03T12:47:43.835Z,935.66
2016-11-03T12:48:56.627Z,935.65
2016-11-03T12:50:09.669Z,935.68
2016-11-03T12:51:23.183Z,935.68
2016-11-03T12:52:36.762Z,935.69
2016-11-03T12:53:50.372Z,935.7
2016-11-03T12:55:03.417Z,935.72
2016-11-03T12:56:16.923Z,935.7
2016-11-03T12:57:30.484Z,935.68
2016-11-03T12:58:43.998Z,935.7
2016-11-03T12:59:57.499Z,935.71
2016-11-03T13:01:10.497Z,935.69
2016-11-03T13:02:23.516Z,935.67
2016-11-03T13:03:37.107Z,935.66
2016-11-03T13:04:50.655Z,935.6
2016-11-03T13:06:04.207Z,935.61
2016-11-03T13:07:17.737Z,935.58
2016-11-03T13:08:31.245Z,935.57
2016-11-03T13:09:44.374Z,935.54
2016-11-03T13:10:57.999Z,935.56
2016-11-03T13:12:11.601Z,935.56
2016-11-03T13:13:25.171Z,935.57
2016-11-03T13:14:38.748Z,935.6
2016-11-03T13:15:52.267Z,935.64
2016-11-03T13:17:05.255Z,935.64
2016-11-03T13:18:18.850Z,935.65
2016-11-03T13:19:31.831Z,935.65
2016-11-03T13:20:45.355Z,935.67
2016-11-03T13:21:58.936Z,935.72
2016-11-03T13:23:12.661Z,935.69
2016-11-03T13:24:25.759Z,935.7
2016-11-03T13:25:38.752Z,935.7
2016-11-03T13:26:51.308Z,935.68
2016-11-03T13:28:04.840Z,935.62
2016-11-03T13:29:18.382Z,935.65
2016-11-03T13:30:31.899Z,935.67
2016-11-03T13:31:45.759Z,935.61
2016-11-03T13:32:59.278Z,935.6
2016-11-03T13:34:12.279Z,935.61
2016-11-03T13:35:26.215Z,935.6
2016-11-03T13:36:39.818Z,935.58
2016-11-03T13:37:53.442Z,935.63
2016-11-03T13:39:06.957Z,935.67
2016-11-03T13:40:20.508Z,935.69
2016-11-03T13:41:34.010Z,935.7
2016-11-03T13:42:47.006Z,935.69
2016-11-03T13:44:00.610Z,935.68
2016-11-03T13:45:14.244Z,935.69
2016-11-03T13:46:27.969Z,935.67
2016-11-03T13:47:41.647Z,935.65
2016-11-03T13:48:55.248Z,935.63
2016-11-03T13:50:08.836Z,935.58
2016-11-03T13:51:22.447Z,935.59
2016-11-03T13:52:36.128Z,935.54
2016-11-03T13:53:49.454Z,935.49
2016-11-03T13:55:03.061Z,935.46
2016-11-03T13:56:16.100Z,935.49
2016-11-03T13:57:29.713Z,935.43
2016-11-03T13:58:42.691Z,935.39
2016-11-03T13:59:55.227Z,935.42
2016-11-03T14:01:08.848Z,935.43
2016-11-03T14:02:22.438Z,935.45
2016-11-03T14:03:35.557Z,935.4
2016-11-03T14:04:48.656Z,935.41
2016-11-03T14:06:02.273Z,935.38
2016-11-03T14:07:15.942Z,935.38
2016-11-03T14:08:29.564Z,935.38
2016-11-03T14:09:42.747Z,935.36
2016-11-03T14:10:56.359Z,935.42
2016-11-03T14:12:09.956Z,935.38
2016-11-03T14:13:23.589Z,935.37
2016-11-03T14:14:37.176Z,935.42
2016-11-03T14:15:50.181Z,935.41
2016-11-03T14:17:03.504Z,935.39
2016-11-03T14:18:17.055Z,935.36
2016-11-03T14:19:30.594Z,935.4
2016-11-03T14:20:44.007Z,935.48
2016-11-03T14:21:57.635Z,935.46
2016-11-03T14:23:11.345Z,935.47
2016-11-03T14:24:24.394Z,935.49
2016-11-03T14:25:38.072Z,935.48
2016-11-03T14:26:51.711Z,935.53
2016-11-03T14:28:05.322Z,935.53
2016-11-03T14:29:18.866Z,935.52
2016-11-03T14:30:32.504Z,935.53
2016-11-03T14:31:46.190Z,935.56
2016-11-03T14:32:59.269Z,935.61
2016-11-03T14:34:12.288Z,935.61
2016-11-03T14:35:25.831Z,935.63
2016-11-03T14:36:39.552Z,935.61
2016-11-03T14:37:53.237Z,935.56
2016-11-03T14:39:07.092Z,935.61
2016-11-03T14:40:20.626Z,935.59
2016-11-03T14:41:34.207Z,935.63
2016-11-03T14:42:47.836Z,935.6
2016-11-03T14:44:01.378Z,935.56
2016-11-03T14:45:14.961Z,935.53
2016-11-03T14:46:28.628Z,935.57
2016-11-03T14:47:42.322Z,935.56
2016-11-03T14:48:56.220Z,935.57
2016-11-03T14:50:09.306Z,935.6
2016-11-03T14:51:23.126Z,935.59
2016-11-03T14:52:36.676Z,935.57
2016-11-03T14:53:50.405Z,935.52
2016-11-03T14:55:03.457Z,935.57
2016-11-03T14:56:17.104Z,935.53
2016-11-03T14:57:30.732Z,935.59
2016-11-03T14:58:44.029Z,935.54
2016-11-03T14:59:57.658Z,935.57
2016-11-03T15:01:10.701Z,935.61
2016-11-03T15:02:23.878Z,935.64
2016-11-03T15:03:37.621Z,935.58
2016-11-03T15:04:51.328Z,935.6
2016-11-03T15:06:04.851Z,935.6
2016-11-03T15:07:18.507Z,935.55
2016-11-03T15:08:31.933Z,935.58
2016-11-03T15:09:45.809Z,935.58
2016-11-03T15:11:00.021Z,935.6
2016-11-03T15:12:12.820Z,935.57
2016-11-03T15:13:25.946Z,935.57
2016-11-03T15:14:39.867Z,935.54
2016-11-03T15:15:52.935Z,935.56
2016-11-03T15:17:06.495Z,935.58
2016-11-03T15:18:19.673Z,935.56
2016-11-03T15:19:33.330Z,935.57
2016-11-03T15:20:47.002Z,935.53
2016-11-03T15:22:00.664Z,935.54